Time;durP1;ratioP1;P1;durP2;ratioP2;P2;SDS_P1;SDS_P2;PMS_P1;PMS_P2;Temp;Humidity;BMP_temperature;BMP_pressure;BME280_temperature;BME280_humidity;BME280_pressure;Samples;Min_cycle;Max_cycle;Signal;HPM_P1;HPM_P2
2020/12/30 00:05:10;;;;;;;14.68;4.82;;;;;;;1.86;89.48;100372.50;4991254;28;20030;-92
2020/12/30 00:07:41;;;;;;;14.27;5.13;;;;;;;1.84;89.21;100380.34;4974607;28;20370;-92
2020/12/30 00:10:10;;;;;;;15.23;4.65;;;;;;;1.85;89.54;100376.00;4974579;28;20076;-92
2020/12/30 00:15:58;;;;;;;12.32;4.00;;;;;;;1.83;89.34;100375.28;4993207;28;20038;-92
2020/12/30 00:18:25;;;;;;;16.38;4.32;;;;;;;1.81;89.43;100372.78;4976918;28;20458;-93
2020/12/30 00:20:56;;;;;;;14.00;3.60;;;;;;;1.79;89.50;100377.22;4980243;28;20023;-91
2020/12/30 00:23:51;;;;;;;12.02;3.70;;;;;;;1.78;89.45;100371.22;4981884;28;20094;-91
2020/12/30 00:26:24;;;;;;;12.50;3.85;;;;;;;1.75;89.43;100374.00;4980725;28;20051;-91
2020/12/30 00:28:51;;;;;;;12.40;3.90;;;;;;;1.73;89.57;100370.66;4983887;28;20463;-92
2020/12/30 00:31:21;;;;;;;11.40;3.55;;;;;;;1.71;89.61;100367.31;4982254;28;20054;-92
2020/12/30 00:33:50;;;;;;;9.90;3.45;;;;;;;1.69;89.53;100371.75;4959014;28;20398;-92
2020/12/30 00:36:17;;;;;;;9.52;3.95;;;;;;;1.67;89.53;100370.19;4968847;28;20478;-92
2020/12/30 00:38:48;;;;;;;11.75;3.97;;;;;;;1.65;89.57;100367.69;4967892;28;20493;-93
2020/12/30 00:41:15;;;;;;;14.48;4.05;;;;;;;1.62;89.72;100367.91;4969890;28;20541;-93
2020/12/30 00:43:45;;;;;;;9.98;4.25;;;;;;;1.62;89.53;100362.72;4965781;28;20356;-93
2020/12/30 00:46:20;;;;;;;11.80;3.60;;;;;;;1.61;90.08;100357.66;4966307;28;20466;-91
2020/12/30 00:48:49;;;;;;;16.58;4.45;;;;;;;1.62;89.73;100351.56;4966075;28;20493;-92
2020/12/30 00:51:16;;;;;;;13.77;4.43;;;;;;;1.62;89.78;100354.13;4964277;28;20474;-90
2020/12/30 00:53:43;;;;;;;14.00;4.30;;;;;;;1.62;89.82;100357.56;4964594;28;20374;-90
2020/12/30 00:56:11;;;;;;;11.75;3.42;;;;;;;1.62;89.83;100352.38;4969686;28;20446;-91
2020/12/30 00:58:39;;;;;;;13.18;4.20;;;;;;;1.62;89.97;100351.56;4972123;28;20409;-92
2020/12/30 01:04:27;;;;;;;14.27;3.72;;;;;;;1.60;90.05;100348.22;4989141;28;20045;-91
2020/12/30 01:06:55;;;;;;;12.57;3.47;;;;;;;1.58;90.13;100347.47;4980038;28;20023;-91
2020/12/30 01:09:22;;;;;;;12.35;3.38;;;;;;;1.53;90.24;100347.75;4971049;28;20097;-91
2020/12/30 01:11:48;;;;;;;12.23;3.80;;;;;;;1.52;90.14;100348.66;4964504;28;20429;-92
2020/12/30 01:14:15;;;;;;;11.32;3.70;;;;;;;1.50;90.34;100347.94;4962123;28;20090;-92
2020/12/30 01:16:47;;;;;;;12.23;3.95;;;;;;;1.48;90.25;100349.78;4961859;28;20374;-92
2020/12/30 01:19:13;;;;;;;10.27;3.42;;;;;;;1.46;90.24;100349.06;4962987;28;20385;-91
2020/12/30 01:25:01;;;;;;;12.27;3.05;;;;;;;1.41;90.38;100345.88;4978904;28;20105;-91
2020/12/30 01:27:28;;;;;;;11.10;3.63;;;;;;;1.40;90.37;100351.97;4961446;28;20030;-91
2020/12/30 01:29:54;;;;;;;13.82;3.60;;;;;;;1.38;90.53;100349.47;4961125;28;20042;-92
2020/12/30 01:32:20;;;;;;;9.23;3.13;;;;;;;1.36;90.82;100356.50;4961699;28;20050;-91
2020/12/30 01:34:46;;;;;;;11.68;3.38;;;;;;;1.35;90.77;100348.84;4960806;28;20018;-90
2020/12/30 01:37:13;;;;;;;9.48;2.80;;;;;;;1.34;90.67;100344.59;4960844;28;20029;-91
2020/12/30 01:39:39;;;;;;;8.88;3.05;;;;;;;1.32;90.94;100346.44;4961632;28;20378;-91
2020/12/30 01:42:06;;;;;;;12.80;3.30;;;;;;;1.29;90.66;100347.47;4963724;28;20417;-92
2020/12/30 01:44:33;;;;;;;12.15;3.38;;;;;;;1.28;91.04;100353.56;4961433;28;20378;-92
2020/12/30 01:47:01;;;;;;;10.68;3.13;;;;;;;1.26;91.28;100355.38;4961748;28;20418;-92
2020/12/30 01:49:28;;;;;;;10.13;3.25;;;;;;;1.25;91.18;100360.63;4961238;28;20366;-92
2020/12/30 01:55:24;;;;;;;9.93;3.17;;;;;;;1.18;91.24;100355.81;4992011;28;20049;-91
2020/12/30 01:57:51;;;;;;;12.00;3.30;;;;;;;1.14;91.27;100351.78;4968743;28;20481;-91
2020/12/30 02:00:17;;;;;;;9.25;3.15;;;;;;;1.13;91.23;100357.84;4963464;28;20284;-91
2020/12/30 02:02:53;;;;;;;11.02;3.92;;;;;;;1.12;91.31;100358.78;4968713;28;20022;-91
2020/12/30 02:05:22;;;;;;;12.57;3.17;;;;;;;1.10;91.33;100355.44;4975508;28;20018;-91
2020/12/30 02:07:50;;;;;;;11.15;3.55;;;;;;;1.08;91.38;100362.44;4980770;28;20347;-92
2020/12/30 02:10:17;;;;;;;12.05;3.47;;;;;;;1.09;91.37;100368.44;4965349;28;20035;-92
2020/12/30 02:12:45;;;;;;;10.02;3.15;;;;;;;1.08;91.40;100367.59;4970286;28;20403;-93
2020/12/30 02:15:24;;;;;;;9.10;3.33;;;;;;;1.08;91.59;100362.44;4962144;28;20405;-92
2020/12/30 02:17:50;;;;;;;9.40;3.33;;;;;;;1.10;91.55;100360.59;4960083;28;20486;-93
2020/12/30 02:20:18;;;;;;;13.82;3.40;;;;;;;1.13;91.78;100367.34;4960574;28;20481;-93
2020/12/30 02:23:07;;;;;;;13.48;4.13;;;;;;;1.12;91.73;100374.28;4964453;28;20386;-93
2020/12/30 02:25:36;;;;;;;14.35;4.13;;;;;;;1.13;91.93;100369.94;4958164;28;20043;-93
2020/12/30 02:28:03;;;;;;;11.68;4.07;;;;;;;1.13;91.62;100375.94;4980902;28;20054;-93
2020/12/30 02:30:29;;;;;;;13.07;4.35;;;;;;;1.13;91.71;100373.34;4963193;28;20026;-93
2020/12/30 02:32:55;;;;;;;11.43;4.60;;;;;;;1.13;91.93;100375.94;4960016;28;20053;-93
2020/12/30 02:35:23;;;;;;;13.07;4.18;;;;;;;1.15;91.97;100371.50;4959450;28;20374;-93
2020/12/30 02:37:50;;;;;;;13.10;4.65;;;;;;;1.15;92.01;100379.25;4968751;28;20042;-92
2020/12/30 02:40:16;;;;;;;13.27;4.60;;;;;;;1.19;92.08;100378.16;4967309;28;20378;-92
2020/12/30 02:42:42;;;;;;;11.55;4.20;;;;;;;1.20;92.18;100376.41;4958986;28;20478;-93
2020/12/30 02:45:09;;;;;;;13.13;4.20;;;;;;;1.23;92.15;100380.56;4959985;28;20470;-93
2020/12/30 02:47:39;;;;;;;8.02;3.70;;;;;;;1.23;92.00;100370.22;4961496;28;20447;-92
2020/12/30 02:50:07;;;;;;;13.60;4.78;;;;;;;1.24;92.15;100374.47;4965560;28;20024;-91
2020/12/30 02:52:34;;;;;;;15.30;4.13;;;;;;;1.24;92.23;100371.88;4965666;28;20378;-91
2020/12/30 02:55:00;;;;;;;8.90;4.03;;;;;;;1.25;92.15;100370.97;4963045;28;20474;-92
2020/12/30 02:57:26;;;;;;;11.57;3.50;;;;;;;1.26;92.23;100370.88;4961258;28;20382;-92
2020/12/30 02:59:56;;;;;;;15.52;4.07;;;;;;;1.27;92.23;100371.72;4960708;28;20386;-92
2020/12/30 03:02:26;;;;;;;10.07;3.17;;;;;;;1.28;92.19;100368.22;4960089;28;20019;-92
2020/12/30 03:04:53;;;;;;;8.85;3.47;;;;;;;1.29;92.19;100364.72;4980015;28;20022;-93
2020/12/30 03:07:20;;;;;;;8.35;3.08;;;;;;;1.29;92.11;100362.97;4964294;28;20474;-92
2020/12/30 03:09:48;;;;;;;9.18;3.45;;;;;;;1.30;92.42;100362.03;4979162;28;20054;-92
2020/12/30 03:12:14;;;;;;;10.20;3.17;;;;;;;1.30;92.33;100349.13;4971469;28;20490;-93
2020/12/30 03:14:41;;;;;;;9.73;2.95;;;;;;;1.31;92.42;100348.19;4974469;28;20018;-92
2020/12/30 03:17:08;;;;;;;9.18;3.30;;;;;;;1.31;92.32;100348.19;4961401;28;20391;-92
2020/12/30 03:19:35;;;;;;;9.95;2.78;;;;;;;1.33;92.28;100353.28;4959144;28;20352;-92
2020/12/30 03:22:01;;;;;;;12.40;2.88;;;;;;;1.31;92.34;100353.38;4958826;28;20489;-92
2020/12/30 03:24:27;;;;;;;9.35;2.88;;;;;;;1.30;92.61;100351.72;4958991;28;20449;-92
2020/12/30 03:26:54;;;;;;;9.75;2.70;;;;;;;1.29;92.43;100352.63;4955602;28;20506;-92
2020/12/30 03:29:20;;;;;;;9.68;2.83;;;;;;;1.26;92.41;100345.03;4955582;29;20044;-92
2020/12/30 03:31:46;;;;;;;8.00;2.75;;;;;;;1.27;92.66;100345.91;4955574;29;20554;-92
2020/12/30 03:34:12;;;;;;;8.13;2.58;;;;;;;1.28;92.47;100347.56;4956995;28;20356;-92
2020/12/30 03:36:38;;;;;;;9.90;3.05;;;;;;;1.28;92.34;100352.72;4959020;29;20057;-92
2020/12/30 03:39:04;;;;;;;7.80;2.90;;;;;;;1.27;92.57;100346.72;4960647;29;20418;-92
2020/12/30 03:41:31;;;;;;;11.35;2.42;;;;;;;1.28;92.48;100344.97;4960233;29;20050;-92
2020/12/30 03:43:57;;;;;;;10.88;2.80;;;;;;;1.28;92.46;100343.22;4959144;29;20379;-92
2020/12/30 03:46:23;;;;;;;8.20;2.20;;;;;;;1.30;92.43;100335.38;4959410;29;20355;-93
2020/12/30 03:48:51;;;;;;;14.25;2.75;;;;;;;1.28;92.59;100332.88;4962467;29;20038;-92
2020/12/30 03:51:18;;;;;;;9.82;2.42;;;;;;;1.31;92.66;100334.44;4965462;29;20427;-92
2020/12/30 03:53:44;;;;;;;9.60;2.67;;;;;;;1.32;92.46;100333.53;4963094;29;20479;-93
2020/12/30 03:56:11;;;;;;;8.23;2.33;;;;;;;1.32;92.54;100336.09;4971891;29;20054;-93
2020/12/30 03:58:37;;;;;;;6.63;2.33;;;;;;;1.32;92.54;100325.78;4961911;29;20490;-92
2020/12/30 04:01:03;;;;;;;7.15;2.20;;;;;;;1.34;92.63;100326.50;4959810;29;20526;-92
2020/12/30 04:03:29;;;;;;;11.35;2.40;;;;;;;1.34;92.53;100323.94;4959966;29;20066;-92
2020/12/30 04:05:57;;;;;;;8.07;2.58;;;;;;;1.36;92.59;100332.41;4969117;29;20027;-92
2020/12/30 04:08:23;;;;;;;8.07;2.33;;;;;;;1.36;92.40;100327.25;4972939;29;20470;-92
2020/12/30 04:10:49;;;;;;;9.82;2.75;;;;;;;1.39;92.59;100327.06;4973375;29;20027;-91
2020/12/30 04:16:39;;;;;;;8.57;2.50;;;;;;;1.43;92.55;100325.97;4963419;29;20178;-93
2020/12/30 04:19:05;;;;;;;7.53;3.20;;;;;;;1.45;92.41;100329.28;4962095;29;20023;-93
2020/12/30 04:21:32;;;;;;;11.85;2.92;;;;;;;1.46;92.35;100323.19;4966474;29;20025;-92
2020/12/30 04:23:58;;;;;;;10.43;2.30;;;;;;;1.48;92.50;100324.78;4980328;29;20506;-90
2020/12/30 04:26:24;;;;;;;7.90;2.45;;;;;;;1.49;92.55;100333.34;4962684;28;20505;-92
2020/12/30 04:28:51;;;;;;;7.78;2.42;;;;;;;1.49;92.52;100335.94;4958814;29;20059;-92
2020/12/30 04:31:18;;;;;;;9.13;3.03;;;;;;;1.49;92.36;100331.59;4967552;29;20412;-92
2020/12/30 04:33:45;;;;;;;5.80;2.10;;;;;;;1.49;92.50;100333.34;4960292;29;20023;-92
2020/12/30 04:36:13;;;;;;;11.80;2.63;;;;;;;1.50;92.46;100322.91;4958056;29;20386;-92
2020/12/30 04:38:40;;;;;;;7.22;2.58;;;;;;;1.50;92.36;100328.09;4958079;29;20486;-92
2020/12/30 04:41:11;;;;;;;6.85;2.33;;;;;;;1.49;92.23;100321.25;4958092;29;20485;-92
2020/12/30 04:43:40;;;;;;;10.75;3.33;;;;;;;1.51;92.44;100318.59;4958361;29;20364;-92
2020/12/30 04:46:07;;;;;;;6.88;2.22;;;;;;;1.51;92.48;100313.41;4959627;28;20482;-91
2020/12/30 04:48:35;;;;;;;8.35;2.55;;;;;;;1.52;92.48;100315.06;4962462;29;20029;-92
2020/12/30 04:51:02;;;;;;;10.60;2.88;;;;;;;1.53;92.46;100318.50;4961318;29;20458;-92
2020/12/30 04:53:30;;;;;;;9.15;2.47;;;;;;;1.53;92.40;100316.72;4960833;29;20059;-93
2020/12/30 04:56:00;;;;;;;11.15;2.65;;;;;;;1.53;92.30;100311.56;4958004;29;20478;-92
2020/12/30 04:58:28;;;;;;;7.18;2.10;;;;;;;1.50;92.39;100315.16;4958236;29;20379;-92
2020/12/30 05:00:57;;;;;;;9.50;1.90;;;;;;;1.52;92.47;100316.81;4957566;29;20463;-92
2020/12/30 05:03:46;;;;;;;6.53;2.40;;;;;;;1.49;92.39;100307.50;4957294;29;20398;-91
2020/12/30 05:06:16;;;;;;;10.23;2.60;;;;;;;1.48;92.29;100301.50;4957456;29;20474;-92
2020/12/30 05:08:43;;;;;;;8.50;2.03;;;;;;;1.49;92.16;100302.34;4972506;29;20019;-93
2020/12/30 05:11:09;;;;;;;6.00;2.45;;;;;;;1.49;92.25;100310.91;4957835;29;20483;-92
2020/12/30 05:13:36;;;;;;;10.77;2.10;;;;;;;1.50;92.22;100306.59;4971798;28;20083;-91
2020/12/30 05:16:02;;;;;;;7.53;1.98;;;;;;;1.50;92.34;100307.41;4969067;28;20475;-93
2020/12/30 05:18:29;;;;;;;7.65;2.05;;;;;;;1.52;92.06;100309.06;4957080;29;20554;-92
2020/12/30 05:20:55;;;;;;;11.35;2.17;;;;;;;1.52;92.23;100306.50;4957745;29;20340;-92
2020/12/30 05:23:21;;;;;;;10.90;2.53;;;;;;;1.53;92.11;100306.41;4958919;29;20478;-94
2020/12/30 05:25:47;;;;;;;9.25;2.00;;;;;;;1.54;92.06;100302.88;4974542;28;20054;-92
2020/12/30 05:28:14;;;;;;;8.48;2.28;;;;;;;1.55;92.11;100308.88;4957227;29;20467;-92
2020/12/30 05:30:44;;;;;;;9.98;2.10;;;;;;;1.57;92.04;100302.69;4957201;29;20434;-92
2020/12/30 05:33:10;;;;;;;7.47;2.20;;;;;;;1.59;92.04;100306.03;4957022;29;20483;-92
2020/12/30 05:35:36;;;;;;;9.30;2.40;;;;;;;1.61;92.20;100306.78;4957371;29;20370;-93
2020/12/30 05:38:04;;;;;;;10.75;2.40;;;;;;;1.63;92.07;100301.50;4956979;29;20410;-92
2020/12/30 05:40:33;;;;;;;7.72;2.10;;;;;;;1.64;92.25;100298.81;4956983;29;20466;-92
2020/12/30 05:43:10;;;;;;;11.95;2.00;;;;;;;1.62;92.09;100300.69;4977310;29;20090;-92
2020/12/30 05:45:47;;;;;;;7.93;1.80;;;;;;;1.64;92.20;100298.81;4960388;29;20451;-92
2020/12/30 05:48:14;;;;;;;10.57;2.05;;;;;;;1.66;91.95;100296.16;4957284;29;20455;-92
2020/12/30 05:50:53;;;;;;;6.60;2.42;;;;;;;1.69;91.74;100299.38;4957133;29;20469;-93
2020/12/30 05:53:20;;;;;;;5.97;1.90;;;;;;;1.71;92.16;100291.50;4957071;29;20462;-92
2020/12/30 05:55:49;;;;;;;5.88;1.40;;;;;;;1.71;92.09;100284.59;4956485;28;20348;-92
2020/12/30 05:58:17;;;;;;;5.97;1.65;;;;;;;1.72;91.93;100291.41;4956230;29;20374;-91
2020/12/30 06:00:44;;;;;;;7.78;2.08;;;;;;;1.73;91.81;100285.31;4964450;29;20059;-91
2020/12/30 06:03:15;;;;;;;6.07;1.30;;;;;;;1.73;91.82;100287.91;4962850;29;20410;-92
2020/12/30 06:05:42;;;;;;;8.63;1.92;;;;;;;1.74;91.61;100291.34;4958479;29;20403;-92
2020/12/30 06:08:08;;;;;;;13.65;1.80;;;;;;;1.75;91.76;100282.66;4960041;29;20435;-92
2020/12/30 06:10:41;;;;;;;8.43;1.77;;;;;;;1.76;91.63;100292.91;4957295;29;20378;-91
2020/12/30 06:13:09;;;;;;;8.32;1.60;;;;;;;1.77;91.83;100291.97;4958859;29;20533;-92
2020/12/30 06:15:35;;;;;;;7.78;1.83;;;;;;;1.79;91.81;100291.88;4956947;29;20133;-92
2020/12/30 06:18:09;;;;;;;7.60;1.63;;;;;;;1.82;91.82;100288.28;4956678;29;20058;-93
2020/12/30 06:20:37;;;;;;;4.47;1.50;;;;;;;1.83;91.80;100292.53;4956550;29;20439;-92
2020/12/30 06:23:14;;;;;;;5.55;1.92;;;;;;;1.83;91.72;100287.34;4956487;29;20051;-92
2020/12/30 06:25:48;;;;;;;4.82;1.85;;;;;;;1.84;91.75;100289.00;4956480;28;20465;-92
2020/12/30 06:28:19;;;;;;;7.22;1.85;;;;;;;1.85;91.76;100288.91;4956570;29;20546;-92
2020/12/30 06:30:47;;;;;;;12.00;2.17;;;;;;;1.85;91.55;100286.31;4956235;29;20382;-91
2020/12/30 06:33:15;;;;;;;12.80;1.80;;;;;;;1.88;91.68;100286.13;4956331;29;20467;-91
2020/12/30 06:35:43;;;;;;;4.90;1.33;;;;;;;1.87;91.45;100291.41;4956250;29;20043;-91
2020/12/30 06:38:27;;;;;;;6.40;1.73;;;;;;;1.87;91.67;100286.22;4957349;29;20463;-91
2020/12/30 06:40:58;;;;;;;11.18;1.60;;;;;;;1.88;91.63;100287.88;4965584;29;20059;-91
2020/12/30 06:43:36;;;;;;;12.65;2.08;;;;;;;1.88;91.78;100291.31;4957942;29;20023;-91
2020/12/30 06:46:04;;;;;;;8.82;2.35;;;;;;;1.89;91.73;100287.78;4958576;29;20467;-92
2020/12/30 06:48:30;;;;;;;7.38;1.20;;;;;;;1.88;91.55;100288.72;4959672;29;20332;-91
2020/12/30 06:51:16;;;;;;;13.68;2.60;;;;;;;1.88;91.48;100282.72;4960452;29;20467;-92
2020/12/30 06:53:50;;;;;;;9.32;1.88;;;;;;;1.90;91.53;100293.81;4961398;29;20541;-91
2020/12/30 06:56:34;;;;;;;6.72;1.52;;;;;;;1.89;91.68;100292.13;4956900;29;20530;-92
2020/12/30 06:59:01;;;;;;;8.35;1.63;;;;;;;1.90;91.53;100291.22;4956077;29;20382;-90
2020/12/30 07:01:27;;;;;;;8.43;1.58;;;;;;;1.90;91.48;100283.47;4956047;29;20535;-91
2020/12/30 07:03:53;;;;;;;9.70;1.90;;;;;;;1.90;91.46;100286.06;4955998;29;20378;-92
2020/12/30 07:06:36;;;;;;;8.45;1.70;;;;;;;1.90;91.27;100293.81;4956217;29;20374;-91
2020/12/30 07:09:07;;;;;;;9.32;1.80;;;;;;;1.91;91.46;100300.66;4959209;28;20434;-91
2020/12/30 07:11:54;;;;;;;9.98;1.65;;;;;;;1.91;91.37;100303.25;4959846;29;20426;-92
2020/12/30 07:14:25;;;;;;;8.32;1.73;;;;;;;1.90;91.30;100299.81;4956113;29;20468;-92
2020/12/30 07:16:53;;;;;;;8.65;1.67;;;;;;;1.92;91.34;100305.72;4959667;29;20412;-92
2020/12/30 07:19:21;;;;;;;7.35;1.85;;;;;;;1.92;91.29;100304.91;4959731;29;20481;-92
2020/12/30 07:21:58;;;;;;;12.32;1.60;;;;;;;1.91;91.32;100306.66;4959492;29;20463;-92
2020/12/30 07:24:31;;;;;;;5.13;1.27;;;;;;;1.92;91.35;100310.91;4959612;29;20492;-92
2020/12/30 07:27:00;;;;;;;4.65;1.40;;;;;;;1.93;91.34;100309.16;4959625;28;20390;-91
2020/12/30 07:29:26;;;;;;;5.75;1.88;;;;;;;1.94;91.14;100305.63;4960075;29;20486;-92
2020/12/30 07:31:55;;;;;;;10.05;1.50;;;;;;;1.96;91.28;100309.78;4959942;29;20466;-92
2020/12/30 07:34:26;;;;;;;6.38;2.08;;;;;;;1.96;91.26;100307.19;4960120;29;20024;-92
2020/12/30 07:36:53;;;;;;;10.00;1.67;;;;;;;1.98;91.11;100304.50;4961426;29;20455;-92
2020/12/30 07:39:34;;;;;;;12.38;1.95;;;;;;;1.98;91.25;100301.91;4959950;29;20054;-92
2020/12/30 07:42:02;;;;;;;9.93;1.70;;;;;;;1.99;91.37;100307.00;4959667;29;20381;-92
2020/12/30 07:44:29;;;;;;;9.25;1.70;;;;;;;1.99;91.00;100312.16;4961261;29;20463;-93
2020/12/30 07:47:05;;;;;;;5.80;1.63;;;;;;;2.00;91.14;100313.81;4976236;29;20019;-91
2020/12/30 07:49:32;;;;;;;6.32;1.63;;;;;;;2.01;91.30;100315.47;4964709;29;20527;-92
2020/12/30 07:55:27;;;;;;;7.90;1.52;;;;;;;2.01;91.13;100319.84;4960626;29;20034;-92
2020/12/30 07:57:57;;;;;;;7.13;2.05;;;;;;;2.00;91.18;100321.59;4959024;29;20027;-92
2020/12/30 08:00:25;;;;;;;7.60;1.80;;;;;;;2.01;90.91;100319.84;4959412;29;20382;-92
2020/12/30 08:02:56;;;;;;;6.18;1.85;;;;;;;2.02;91.00;100334.41;4960724;29;20426;-93
2020/12/30 08:05:23;;;;;;;5.15;1.55;;;;;;;2.01;91.04;100323.25;4959282;29;20359;-93
2020/12/30 08:07:50;;;;;;;4.53;1.25;;;;;;;2.03;90.82;100330.91;4961061;29;20458;-92
2020/12/30 08:13:39;;;;;;;8.57;1.48;;;;;;;2.02;90.96;100331.84;4964506;29;20107;-91
2020/12/30 08:16:11;;;;;;;10.55;1.92;;;;;;;2.02;90.95;100334.41;4966696;29;20470;-91
2020/12/30 08:18:49;;;;;;;9.82;1.30;;;;;;;2.02;90.92;100340.44;4968956;29;20050;-93
2020/12/30 08:21:17;;;;;;;7.18;1.98;;;;;;;2.02;90.89;100339.59;4968697;29;20467;-92
2020/12/30 08:23:45;;;;;;;8.57;1.67;;;;;;;2.02;90.92;100345.59;4968631;29;20031;-91
2020/12/30 08:26:13;;;;;;;9.55;1.67;;;;;;;2.03;90.81;100347.25;4969080;28;20479;-92
2020/12/30 08:28:41;;;;;;;8.77;1.38;;;;;;;2.04;91.06;100350.69;4963651;29;20515;-92
2020/12/30 08:31:15;;;;;;;6.30;1.65;;;;;;;2.04;90.81;100354.09;4962065;29;20467;-91
2020/12/30 08:33:42;;;;;;;4.28;1.58;;;;;;;2.05;90.98;100349.75;4967665;29;20513;-91
2020/12/30 08:36:22;;;;;;;5.32;1.55;;;;;;;2.04;90.90;100356.69;4962032;29;20027;-92
2020/12/30 08:38:52;;;;;;;4.40;1.17;;;;;;;2.05;90.81;100358.38;4959517;29;20411;-92
2020/12/30 08:41:28;;;;;;;11.48;1.50;;;;;;;2.07;90.72;100358.28;4959179;29;20371;-93
2020/12/30 08:44:00;;;;;;;3.33;1.33;;;;;;;2.06;90.81;100372.13;4960311;29;20360;-92
2020/12/30 08:46:30;;;;;;;7.28;1.73;;;;;;;2.06;90.84;100370.38;4959477;29;20473;-94
2020/12/30 08:48:58;;;;;;;6.50;1.30;;;;;;;2.07;90.74;100368.63;4961907;29;20493;-92
2020/12/30 08:51:31;;;;;;;7.18;1.95;;;;;;;2.07;90.97;100371.22;4964459;29;20595;-91
2020/12/30 08:53:57;;;;;;;9.77;1.50;;;;;;;2.08;90.81;100365.94;4965876;29;20019;-91
2020/12/30 08:59:45;;;;;;;7.00;1.88;;;;;;;2.08;90.78;100358.19;4963245;29;20078;-95
2020/12/30 09:02:13;;;;;;;8.25;2.03;;;;;;;2.08;90.83;100355.59;4961777;29;20470;-95
2020/12/30 09:05:10;;;;;;;12.13;1.98;;;;;;;2.09;90.60;100365.00;4961306;29;20356;-96
2020/12/30 09:07:39;;;;;;;8.95;1.85;;;;;;;2.11;90.68;100359.75;4963070;29;20367;-96
2020/12/30 09:10:10;;;;;;;7.35;2.00;;;;;;;2.11;90.80;100357.16;4952057;29;20419;-94
2020/12/30 09:12:41;;;;;;;7.63;2.08;;;;;;;2.10;90.81;100360.66;4964488;29;20023;-96
2020/12/30 09:15:08;;;;;;;5.45;1.70;;;;;;;2.10;90.71;100355.50;4965596;29;20485;-94
2020/12/30 09:17:36;;;;;;;6.63;1.65;;;;;;;2.09;90.60;100359.84;4963184;29;20031;-95
2020/12/30 09:20:13;;;;;;;7.78;1.92;;;;;;;2.12;90.58;100376.91;4963068;29;20462;-95
2020/12/30 09:26:03;;;;;;;8.52;2.30;;;;;;;2.15;90.49;100381.06;4974559;28;20042;-95
2020/12/30 09:28:35;;;;;;;7.95;2.45;;;;;;;2.14;90.75;100371.66;4975650;28;20022;-95
2020/12/30 09:31:06;;;;;;;8.55;2.28;;;;;;;2.17;90.59;100374.88;4966349;28;20493;-96
2020/12/30 09:33:33;;;;;;;8.73;2.17;;;;;;;2.20;90.58;100384.19;4961447;28;20475;-96
2020/12/30 09:36:06;;;;;;;5.63;1.80;;;;;;;2.21;90.67;100381.53;4962191;28;20469;-95
2020/12/30 09:38:33;;;;;;;6.20;1.70;;;;;;;2.24;90.45;100380.50;4961962;28;20470;-94
2020/12/30 09:41:00;;;;;;;9.75;1.98;;;;;;;2.24;90.79;100375.34;4962458;28;20055;-95
2020/12/30 09:43:27;;;;;;;6.00;1.67;;;;;;;2.24;90.55;100386.53;4962631;28;20385;-95
2020/12/30 09:46:22;;;;;;;6.50;1.67;;;;;;;2.27;90.52;100388.09;4962455;28;20370;-95
2020/12/30 09:48:48;;;;;;;5.53;1.85;;;;;;;2.28;90.49;100393.16;4979425;28;20030;-95
2020/12/30 09:51:17;;;;;;;5.60;1.70;;;;;;;2.29;90.69;100387.06;4969523;28;20501;-95
2020/12/30 09:53:44;;;;;;;8.45;1.80;;;;;;;2.29;90.55;100387.06;4961918;28;20481;-94
2020/12/30 09:56:14;;;;;;;6.93;1.90;;;;;;;2.29;90.29;100394.81;4961054;28;20374;-95
2020/12/30 09:58:42;;;;;;;8.15;2.17;;;;;;;2.31;90.47;100392.97;4962102;28;20023;-95
2020/12/30 10:01:08;;;;;;;7.55;2.25;;;;;;;2.32;90.46;100394.63;4962372;28;20473;-96
2020/12/30 10:03:35;;;;;;;8.95;3.30;;;;;;;2.35;90.42;100391.00;4961760;28;20026;-95
2020/12/30 10:06:03;;;;;;;9.20;2.17;;;;;;;2.37;90.29;100384.84;4963378;28;20394;-94
2020/12/30 10:08:29;;;;;;;9.32;3.10;;;;;;;2.39;90.49;100389.91;4962754;28;20365;-95
2020/12/30 10:10:55;;;;;;;6.80;2.25;;;;;;;2.40;90.46;100382.06;4965434;28;20018;-94
2020/12/30 10:13:23;;;;;;;5.75;2.10;;;;;;;2.42;90.24;100389.72;4966995;28;20034;-95
2020/12/30 10:15:50;;;;;;;8.57;2.78;;;;;;;2.44;90.06;100387.84;4963709;28;20424;-95
2020/12/30 10:18:18;;;;;;;7.30;2.70;;;;;;;2.46;90.17;100391.19;4964946;28;20474;-95
2020/12/30 10:20:46;;;;;;;11.52;3.15;;;;;;;2.47;90.06;100389.41;4964928;28;20046;-95
2020/12/30 10:23:13;;;;;;;7.15;2.58;;;;;;;2.49;90.14;100385.81;4965793;28;20462;-95
2020/12/30 10:25:42;;;;;;;10.10;2.60;;;;;;;2.52;90.24;100387.38;4967737;28;20030;-94
2020/12/30 10:28:10;;;;;;;8.60;2.58;;;;;;;2.54;89.97;100386.38;4964973;28;20413;-95
2020/12/30 10:30:36;;;;;;;7.45;2.75;;;;;;;2.55;90.17;100385.44;4963176;28;20407;-95
2020/12/30 10:33:02;;;;;;;9.65;3.08;;;;;;;2.57;90.17;100382.75;4962351;28;20356;-95
2020/12/30 10:35:30;;;;;;;7.07;2.15;;;;;;;2.56;90.07;100391.44;4965067;28;20027;-95
2020/12/30 10:37:57;;;;;;;6.97;2.60;;;;;;;2.57;89.99;100388.75;4962332;28;20027;-95
2020/12/30 10:40:25;;;;;;;8.00;2.30;;;;;;;2.59;90.12;100379.13;4964171;28;20042;-95
2020/12/30 10:42:55;;;;;;;12.27;2.40;;;;;;;2.62;90.09;100381.50;4969515;28;20418;-95
2020/12/30 10:45:23;;;;;;;7.65;2.00;;;;;;;2.65;89.85;100375.31;4978720;28;20030;-95
2020/12/30 10:47:52;;;;;;;5.18;1.92;;;;;;;2.65;89.87;100378.72;4981506;28;20053;-95
2020/12/30 10:50:20;;;;;;;7.10;2.22;;;;;;;2.66;89.84;100377.78;4985231;28;20022;-94
2020/12/30 10:52:48;;;;;;;9.25;3.05;;;;;;;2.69;89.88;100385.38;4978331;28;20047;-95
2020/12/30 10:55:17;;;;;;;7.57;2.10;;;;;;;2.72;89.76;100381.78;4958504;28;20090;-95
2020/12/30 10:57:44;;;;;;;10.60;2.65;;;;;;;2.74;89.95;100385.09;4974443;28;20470;-95
2020/12/30 11:00:17;;;;;;;8.48;2.45;;;;;;;2.77;89.80;100390.06;4974567;28;20351;-95
2020/12/30 11:06:08;;;;;;;5.95;2.20;;;;;;;2.80;89.50;100382.09;4993888;28;20082;-96
2020/12/30 11:08:42;;;;;;;7.20;2.63;;;;;;;2.81;89.74;100375.97;4977172;28;20531;-96
2020/12/30 11:11:09;;;;;;;4.72;2.20;;;;;;;2.84;89.85;100381.00;4956553;28;20422;-96
2020/12/30 11:13:48;;;;;;;5.07;2.55;;;;;;;2.87;89.58;100375.59;4998010;28;20015;-96
2020/12/30 11:21:39;;;;;;;;;;;;;;;2.94;89.67;100387.22;5051352;23;20042;-96
2020/12/30 11:27:30;;;;;;;8.63;2.75;;;;;;;3.00;89.59;100386.84;5039899;28;20028;-95
2020/12/30 11:29:59;;;;;;;6.47;2.33;;;;;;;3.02;89.62;100391.09;5006041;28;20030;-95
2020/12/30 11:32:26;;;;;;;8.82;2.17;;;;;;;3.03;89.59;100390.16;5004833;28;20033;-95
2020/12/30 11:35:15;;;;;;;5.88;3.15;;;;;;;3.02;89.46;100393.69;5022177;28;20018;-96
2020/12/30 11:37:47;;;;;;;7.60;2.30;;;;;;;3.04;89.74;100387.47;5034013;28;20093;-95
2020/12/30 11:40:15;;;;;;;6.60;1.83;;;;;;;3.07;89.33;100389.03;5023176;28;20028;-96
2020/12/30 11:42:46;;;;;;;6.05;2.53;;;;;;;3.10;89.29;100381.88;5020170;28;20484;-96
2020/12/30 11:45:34;;;;;;;6.13;1.80;;;;;;;3.14;89.45;100385.09;5025167;28;20033;-95
2020/12/30 11:48:04;;;;;;;8.13;2.63;;;;;;;3.16;89.46;100381.47;5005497;28;20022;-96
2020/12/30 11:50:35;;;;;;;5.15;2.22;;;;;;;3.19;89.40;100383.03;5034182;23;20125;-96
2020/12/30 11:53:03;;;;;;;6.05;2.50;;;;;;;3.16;89.45;100380.66;5008722;28;20109;-96
2020/12/30 12:09:04;;;;;;;5.25;2.30;;;;;;;3.19;88.98;100376.09;5000770;28;20045;-95
2020/12/30 12:11:31;;;;;;;5.82;2.05;;;;;;;3.21;89.15;100376.81;4998108;28;20039;-94
2020/12/30 12:14:14;;;;;;;9.45;2.53;;;;;;;3.22;88.79;100372.47;4997638;28;20023;-94
2020/12/30 12:16:59;;;;;;;5.75;2.42;;;;;;;3.23;88.77;100381.91;4965472;28;20039;-93
2020/12/30 12:19:26;;;;;;;7.65;2.30;;;;;;;3.22;88.63;100380.25;4985667;28;20048;-93
2020/12/30 12:24:31;;;;;;;;;;;;;;;3.22;88.91;100385.41;5364285;22;20050;-96
2020/12/30 12:26:58;;;;;;;9.70;2.85;;;;;;;3.22;88.79;100383.66;5022685;28;19955;-95
2020/12/30 12:32:13;;;;;;;;;;;;;;;3.23;88.68;100384.50;4992316;28;20038;-95
2020/12/30 12:34:45;;;;;;;6.95;2.50;;;;;;;3.23;88.62;100382.72;4979226;28;20333;-96
2020/12/30 12:37:23;;;;;;;7.65;2.63;;;;;;;3.25;88.54;100380.03;4975197;28;20015;-96
2020/12/30 12:43:31;;;;;;;6.45;2.95;;;;;;;3.26;88.50;100387.69;4997610;28;20373;-94
2020/12/30 12:49:23;;;;;;;8.55;3.50;;;;;;;3.24;88.68;100383.56;4993644;28;20094;-96
2020/12/30 12:55:17;;;;;;;8.70;3.70;;;;;;;3.26;88.57;100389.47;4996840;28;20099;-96
2020/12/30 12:57:54;;;;;;;11.10;4.07;;;;;;;3.27;88.77;100386.78;4961102;28;20038;-96